Time;durP1;ratioP1;P1;durP2;ratioP2;P2;SDS_P1;SDS_P2;PMS_P1;PMS_P2;Temp;Humidity;BMP_temperature;BMP_pressure;BME280_temperature;BME280_humidity;BME280_pressure;Samples;Min_cycle;Max_cycle;Signal;HPM_P1;HPM_P2
2023/04/10 00:00:35;;;;;;;2.35;0.75;;;19.10;52.70;;;;;;5192142;22;20011;-49
2023/04/10 00:03:02;;;;;;;2.25;0.95;;;19.10;52.70;;;;;;5188662;22;20428;-51
2023/04/10 00:05:25;;;;;;;3.25;1.00;;;19.10;52.30;;;;;;5183139;22;20020;-52
2023/04/10 00:07:47;;;;;;;3.53;1.20;;;19.10;52.20;;;;;;5152891;22;20039;-54
2023/04/10 00:10:10;;;;;;;1.92;0.95;;;19.10;51.80;;;;;;5184705;22;20047;-58
2023/04/10 00:12:32;;;;;;;1.88;0.80;;;19.10;51.90;;;;;;5178112;22;20368;-61
2023/04/10 00:14:55;;;;;;;2.10;1.05;;;19.10;52.00;;;;;;5155651;22;20332;-53
2023/04/10 00:17:17;;;;;;;3.85;1.23;;;19.10;52.70;;;;;;5192647;22;20102;-54
2023/04/10 00:19:39;;;;;;;3.40;1.23;;;19.10;53.20;;;;;;5160472;22;20095;-59
2023/04/10 00:22:02;;;;;;;3.50;1.17;;;19.20;53.20;;;;;;5184042;22;20043;-62
2023/04/10 00:24:25;;;;;;;1.55;0.82;;;19.20;53.00;;;;;;5156185;22;20463;-61
2023/04/10 00:26:47;;;;;;;2.60;0.82;;;19.30;52.60;;;;;;5186096;22;20099;-63
2023/04/10 00:29:12;;;;;;;4.28;0.90;;;19.30;53.30;;;;;;5129672;23;20027;-67
2023/04/10 00:31:35;;;;;;;1.55;1.00;;;19.40;52.20;;;;;;5159747;23;20047;-63
2023/04/10 00:33:57;;;;;;;1.98;0.85;;;19.30;52.50;;;;;;5162462;22;20016;-55
2023/04/10 00:36:20;;;;;;;1.80;0.77;;;19.40;51.80;;;;;;5160263;22;20954;-58
2023/04/10 00:38:42;;;;;;;2.35;0.60;;;19.40;51.80;;;;;;5162768;23;20169;-54
2023/04/10 00:41:05;;;;;;;3.30;1.25;;;19.50;51.70;;;;;;5165789;23;20015;-61
2023/04/10 00:43:28;;;;;;;2.17;0.88;;;19.50;51.80;;;;;;5166245;23;20589;-56
2023/04/10 00:45:50;;;;;;;16.92;2.40;;;19.50;52.10;;;;;;5166981;22;20069;-60
2023/04/10 00:48:15;;;;;;;14.75;2.20;;;19.50;52.50;;;;;;5165169;23;20040;-55
2023/04/10 00:50:37;;;;;;;23.25;2.67;;;19.50;52.90;;;;;;5168039;22;20027;-61
2023/04/10 00:53:00;;;;;;;18.05;2.35;;;19.50;53.30;;;;;;5166913;22;20038;-60
2023/04/10 00:55:22;;;;;;;5.80;1.63;;;19.50;53.10;;;;;;5165541;22;20016;-63
2023/04/10 00:57:46;;;;;;;12.85;2.45;;;19.50;52.80;;;;;;5166716;22;20016;-61
2023/04/10 01:00:09;;;;;;;11.93;2.42;;;19.50;52.70;;;;;;5165207;23;20020;-63
2023/04/10 01:02:31;;;;;;;7.68;1.48;;;19.50;52.70;;;;;;5137390;23;20402;-60
2023/04/10 01:04:54;;;;;;;6.03;1.40;;;19.50;52.60;;;;;;5165849;23;20529;-61
2023/04/10 01:07:28;;;;;;;4.32;1.30;;;19.50;52.50;;;;;;5169025;22;20012;-61
2023/04/10 01:09:50;;;;;;;7.78;1.77;;;19.50;52.30;;;;;;5170170;22;20472;-63
2023/04/10 01:12:38;;;;;;;3.58;0.95;;;19.50;52.20;;;;;;5169540;22;20631;-62
2023/04/10 01:15:09;;;;;;;3.80;0.98;;;19.50;52.20;;;;;;5166766;23;20012;-61
2023/04/10 01:17:52;;;;;;;4.70;2.05;;;19.50;52.10;;;;;;5170194;22;20016;-63
2023/04/10 01:20:25;;;;;;;3.38;1.13;;;19.50;52.10;;;;;;5169148;23;20545;-62
2023/04/10 01:23:09;;;;;;;3.47;0.80;;;19.50;52.10;;;;;;5170650;22;20400;-63
2023/04/10 01:25:48;;;;;;;1.52;0.68;;;19.50;52.00;;;;;;5170810;22;20785;-63
2023/04/10 01:28:21;;;;;;;3.75;1.05;;;19.50;52.00;;;;;;5170954;22;20024;-62
2023/04/10 01:30:49;;;;;;;2.55;0.57;;;19.50;52.00;;;;;;5170580;22;20095;-62
2023/04/10 01:33:16;;;;;;;2.03;0.80;;;19.50;52.00;;;;;;5170760;22;20012;-63
2023/04/10 01:35:40;;;;;;;2.13;0.60;;;19.50;52.00;;;;;;5171569;22;20022;-64
2023/04/10 01:38:06;;;;;;;1.23;0.63;;;19.50;52.00;;;;;;5172957;22;20053;-63
2023/04/10 01:40:31;;;;;;;2.70;0.60;;;19.50;52.00;;;;;;5169934;23;20016;-63
2023/04/10 01:42:56;;;;;;;2.33;1.00;;;19.50;52.00;;;;;;5170464;23;20012;-64
2023/04/10 01:45:26;;;;;;;1.90;0.60;;;19.50;52.00;;;;;;5170133;23;20553;-63
2023/04/10 01:47:50;;;;;;;1.95;0.60;;;19.50;52.00;;;;;;5140613;23;20443;-63
2023/04/10 01:50:13;;;;;;;0.63;0.60;;;19.50;52.70;;;;;;5137158;23;20035;-62
2023/04/10 01:52:36;;;;;;;0.80;0.50;;;19.50;52.00;;;;;;5172093;22;20376;-61
2023/04/10 01:55:00;;;;;;;0.90;0.60;;;19.50;52.00;;;;;;5141169;23;20373;-62
2023/04/10 01:57:23;;;;;;;0.68;0.40;;;19.40;52.00;;;;;;5169882;22;20439;-64
2023/04/10 01:59:47;;;;;;;1.13;0.55;;;19.40;52.00;;;;;;5170905;23;20019;-64
2023/04/10 02:02:12;;;;;;;0.52;0.52;;;19.50;52.00;;;;;;5171214;22;20523;-64
2023/04/10 02:04:34;;;;;;;0.40;0.40;;;19.40;52.00;;;;;;5169200;22;20023;-64
2023/04/10 02:07:04;;;;;;;1.02;0.57;;;19.50;52.10;;;;;;5169606;22;20456;-64
2023/04/10 02:09:42;;;;;;;0.65;0.47;;;19.50;52.00;;;;;;5171257;22;20062;-63
2023/04/10 02:12:09;;;;;;;0.70;0.40;;;19.50;52.00;;;;;;5139221;23;20016;-63
2023/04/10 02:14:35;;;;;;;0.47;0.45;;;19.40;52.00;;;;;;5171915;22;20095;-64
2023/04/10 02:17:02;;;;;;;0.75;0.57;;;19.50;52.10;;;;;;5171149;22;20800;-63
2023/04/10 02:19:26;;;;;;;1.20;0.60;;;19.50;52.00;;;;;;5170896;23;20043;-64
2023/04/10 02:21:50;;;;;;;0.73;0.50;;;19.50;52.00;;;;;;5170906;22;20480;-64
2023/04/10 02:24:13;;;;;;;0.82;0.50;;;19.40;52.00;;;;;;5171833;22;20117;-63
2023/04/10 02:26:49;;;;;;;0.93;0.50;;;19.40;52.10;;;;;;5170614;22;20024;-62
2023/04/10 02:29:12;;;;;;;0.57;0.50;;;19.50;52.10;;;;;;5137850;23;20016;-62
2023/04/10 02:31:35;;;;;;;0.40;0.40;;;19.50;52.10;;;;;;5169939;23;20019;-63
2023/04/10 02:33:57;;;;;;;0.50;0.50;;;19.50;52.00;;;;;;5170897;23;20376;-62
2023/04/10 02:36:23;;;;;;;0.40;0.40;;;19.50;52.00;;;;;;5139115;23;20143;-63
2023/04/10 02:38:45;;;;;;;1.23;0.52;;;19.50;52.00;;;;;;5140818;23;20017;-63
2023/04/10 02:41:08;;;;;;;1.08;0.50;;;19.50;51.90;;;;;;5169097;23;20445;-62
2023/04/10 02:43:30;;;;;;;0.60;0.50;;;19.50;51.90;;;;;;5171764;22;20099;-63
2023/04/10 02:45:53;;;;;;;0.47;0.45;;;19.50;51.90;;;;;;5169062;23;20382;-63
2023/04/10 02:48:16;;;;;;;1.17;0.73;;;19.50;51.90;;;;;;5172479;22;20059;-64
2023/04/10 02:50:39;;;;;;;0.82;0.55;;;19.60;51.90;;;;;;5170359;23;20068;-62
2023/04/10 02:53:02;;;;;;;1.25;0.70;;;19.50;51.80;;;;;;5172301;22;20418;-63
2023/04/10 02:55:24;;;;;;;0.88;0.50;;;19.50;51.80;;;;;;5172150;22;20020;-62
2023/04/10 02:57:47;;;;;;;1.20;0.68;;;19.60;51.90;;;;;;5172309;22;20091;-62
2023/04/10 03:00:10;;;;;;;0.50;0.43;;;19.60;51.90;;;;;;5170459;23;20011;-64
2023/04/10 03:02:32;;;;;;;0.40;0.40;;;19.60;51.80;;;;;;5137380;23;20009;-62
2023/04/10 03:04:55;;;;;;;0.70;0.63;;;19.60;51.80;;;;;;5140904;23;20068;-62
2023/04/10 03:07:17;;;;;;;0.95;0.57;;;19.60;51.80;;;;;;5167133;23;20023;-61
2023/04/10 03:09:40;;;;;;;0.80;0.60;;;19.60;51.80;;;;;;5137387;23;20115;-62
2023/04/10 03:12:05;;;;;;;0.73;0.57;;;19.60;51.70;;;;;;5168211;23;20023;-63
2023/04/10 03:14:28;;;;;;;0.38;0.38;;;19.70;51.70;;;;;;5169374;23;20008;-63
2023/04/10 03:16:50;;;;;;;0.50;0.50;;;19.60;51.60;;;;;;5170728;22;20020;-62
2023/04/10 03:19:13;;;;;;;0.57;0.50;;;19.70;52.30;;;;;;5169541;23;20035;-62
2023/04/10 03:24:18;;;;;;;0.60;0.50;;;19.70;51.60;;;;;;5170945;23;20020;-63
2023/04/10 03:26:43;;;;;;;0.40;0.40;;;19.70;51.50;;;;;;5168938;23;20064;-61
2023/04/10 03:29:06;;;;;;;0.52;0.40;;;19.80;51.40;;;;;;5171784;22;20532;-62
2023/04/10 03:31:29;;;;;;;2.58;1.10;;;19.80;51.30;;;;;;5138733;23;20498;-62
2023/04/10 03:33:52;;;;;;;4.30;2.42;;;19.80;51.30;;;;;;5138418;23;20013;-62
2023/04/10 03:36:14;;;;;;;6.10;3.47;;;19.80;52.00;;;;;;5139736;23;20012;-63
2023/04/10 03:38:37;;;;;;;6.43;3.22;;;19.80;51.30;;;;;;5160176;23;20066;-61
2023/04/10 03:40:59;;;;;;;7.32;3.45;;;19.80;51.40;;;;;;5139883;23;20012;-62
2023/04/10 03:43:22;;;;;;;6.28;3.45;;;19.80;51.50;;;;;;5171220;22;20012;-62
2023/04/10 03:45:44;;;;;;;6.95;3.13;;;19.80;51.50;;;;;;5139804;23;20509;-61
2023/04/10 03:48:07;;;;;;;7.20;3.63;;;19.80;51.50;;;;;;5171521;22;20146;-63
2023/04/10 03:50:29;;;;;;;7.88;3.97;;;19.80;51.50;;;;;;5170635;23;20020;-62
2023/04/10 03:52:52;;;;;;;7.18;4.28;;;19.90;51.50;;;;;;5171392;22;20008;-61
2023/04/10 03:55:18;;;;;;;6.78;3.83;;;19.90;51.40;;;;;;5169759;23;20012;-62
2023/04/10 03:57:40;;;;;;;6.75;3.67;;;20.00;51.40;;;;;;5138518;23;20468;-62
2023/04/10 04:00:04;;;;;;;6.55;3.40;;;20.00;51.30;;;;;;5171708;22;20067;-62
2023/04/10 04:02:27;;;;;;;7.38;3.75;;;20.00;51.30;;;;;;5170661;22;20016;-62
2023/04/10 04:04:49;;;;;;;6.55;3.63;;;20.10;51.20;;;;;;5163604;23;20020;-61
2023/04/10 04:07:12;;;;;;;6.47;3.35;;;20.20;51.10;;;;;;5131828;23;20027;-60
2023/04/10 04:09:35;;;;;;;7.30;3.75;;;20.20;51.00;;;;;;5162897;22;20315;-61
2023/04/10 04:11:57;;;;;;;6.68;3.42;;;20.30;50.90;;;;;;5162440;22;20012;-62
2023/04/10 04:14:20;;;;;;;5.78;3.47;;;20.30;50.80;;;;;;5130044;23;20103;-61
2023/04/10 04:16:42;;;;;;;5.43;3.00;;;20.40;50.70;;;;;;5162480;22;20057;-61
2023/04/10 04:19:05;;;;;;;5.50;3.30;;;20.50;50.60;;;;;;5163352;22;20435;-61
2023/04/10 04:21:27;;;;;;;5.00;3.30;;;20.60;50.50;;;;;;5162021;22;20012;-61
2023/04/10 04:23:50;;;;;;;6.10;3.20;;;20.60;50.30;;;;;;5163327;22;20043;-61
2023/04/10 04:26:12;;;;;;;4.95;3.10;;;20.80;50.10;;;;;;5161648;22;20069;-63
2023/04/10 04:28:35;;;;;;;4.55;2.58;;;20.80;50.00;;;;;;5160088;23;20008;-62
2023/04/10 04:30:57;;;;;;;5.35;2.67;;;20.90;50.00;;;;;;5163106;22;20051;-61
2023/04/10 04:33:19;;;;;;;4.88;2.47;;;21.00;49.90;;;;;;5162537;22;20099;-60
2023/04/10 04:35:42;;;;;;;5.30;2.33;;;21.10;49.80;;;;;;5161019;23;20099;-60
2023/04/10 04:38:04;;;;;;;4.30;2.10;;;21.10;49.60;;;;;;5162159;22;20119;-60
2023/04/10 04:40:27;;;;;;;3.78;2.30;;;21.20;49.60;;;;;;5163535;23;20106;-61
2023/04/10 04:42:49;;;;;;;4.05;2.35;;;21.20;49.50;;;;;;5163349;22;20035;-60
2023/04/10 04:45:13;;;;;;;3.50;2.00;;;21.20;49.40;;;;;;5170959;22;20033;-61
2023/04/10 04:47:35;;;;;;;4.45;2.15;;;21.30;49.30;;;;;;5169201;23;20008;-62
2023/04/10 04:49:57;;;;;;;3.83;2.00;;;21.40;49.40;;;;;;5169119;23;20020;-61
2023/04/10 04:52:20;;;;;;;3.78;1.98;;;21.40;49.30;;;;;;5169987;23;20004;-61
2023/04/10 04:54:42;;;;;;;3.63;1.92;;;21.50;49.20;;;;;;5172796;22;20492;-63
2023/04/10 04:57:06;;;;;;;2.28;1.40;;;21.60;49.20;;;;;;5172784;22;20015;-63
2023/04/10 04:59:28;;;;;;;3.20;1.85;;;21.70;49.00;;;;;;5172135;23;20047;-61
2023/04/10 05:01:51;;;;;;;3.78;1.85;;;21.70;48.90;;;;;;5170854;23;20371;-62
2023/04/10 05:04:13;;;;;;;2.03;1.10;;;21.80;48.90;;;;;;5171251;22;20032;-62
2023/04/10 05:06:36;;;;;;;4.18;1.70;;;21.70;49.00;;;;;;5170533;23;20067;-62
2023/04/10 05:08:58;;;;;;;2.58;1.50;;;21.80;49.00;;;;;;5173018;22;20013;-61
2023/04/10 05:11:21;;;;;;;2.22;1.40;;;21.70;49.00;;;;;;5170875;22;20455;-61
2023/04/10 05:13:44;;;;;;;2.42;1.52;;;21.70;49.10;;;;;;5140605;23;20016;-60
2023/04/10 05:16:07;;;;;;;3.17;1.67;;;21.60;49.10;;;;;;5172237;22;20099;-61
2023/04/10 05:18:30;;;;;;;2.22;1.40;;;21.70;49.10;;;;;;5169100;23;20012;-61
2023/04/10 05:20:52;;;;;;;2.83;1.83;;;21.70;49.20;;;;;;5172064;22;20047;-61
2023/04/10 05:23:15;;;;;;;2.63;1.70;;;21.60;49.10;;;;;;5172035;22;20088;-62
2023/04/10 05:25:37;;;;;;;2.65;1.52;;;21.60;49.10;;;;;;5171585;22;20020;-60
2023/04/10 05:28:00;;;;;;;2.30;1.33;;;21.60;49.20;;;;;;5171663;22;20035;-58
2023/04/10 05:30:23;;;;;;;2.08;1.38;;;21.60;49.20;;;;;;5172040;22;20501;-60
2023/04/10 05:32:46;;;;;;;2.30;1.50;;;21.70;49.20;;;;;;5169895;23;20348;-60
2023/04/10 05:35:08;;;;;;;2.63;1.25;;;21.70;49.20;;;;;;5171032;22;20170;-61
2023/04/10 05:37:31;;;;;;;1.30;1.10;;;21.80;49.10;;;;;;5171349;22;20326;-61
2023/04/10 05:39:54;;;;;;;2.33;1.00;;;21.80;49.10;;;;;;5161923;23;20513;-61
2023/04/10 05:42:16;;;;;;;1.85;1.20;;;21.90;48.90;;;;;;5169250;23;20016;-59
2023/04/10 05:44:39;;;;;;;2.10;0.90;;;22.00;48.90;;;;;;5172220;22;20081;-60
2023/04/10 05:47:02;;;;;;;2.30;0.93;;;21.90;48.90;;;;;;5139595;23;20100;-62
2023/04/10 05:49:24;;;;;;;1.92;1.08;;;21.90;49.00;;;;;;5138528;23;20012;-62
2023/04/10 05:51:49;;;;;;;1.52;1.10;;;21.90;49.00;;;;;;5169541;23;20467;-60
2023/04/10 05:54:11;;;;;;;1.92;1.23;;;21.80;49.10;;;;;;5139835;23;20451;-60
2023/04/10 05:56:34;;;;;;;1.55;0.88;;;21.80;49.50;;;;;;5169258;23;20024;-59
2023/04/10 05:58:56;;;;;;;1.67;1.08;;;21.70;49.20;;;;;;5170616;23;20016;-59
2023/04/10 06:01:19;;;;;;;2.10;0.95;;;21.70;49.30;;;;;;5172228;22;20027;-60
2023/04/10 06:03:41;;;;;;;0.77;0.63;;;21.70;49.30;;;;;;5168389;22;20012;-62
2023/04/10 06:06:06;;;;;;;1.63;0.88;;;21.70;49.40;;;;;;5172011;22;20107;-61
2023/04/10 06:08:29;;;;;;;2.60;0.90;;;21.70;49.50;;;;;;5138316;23;20052;-58
2023/04/10 06:10:51;;;;;;;1.88;1.02;;;21.60;49.50;;;;;;5168922;23;20563;-60
2023/04/10 06:13:14;;;;;;;1.95;0.80;;;21.60;49.60;;;;;;5118014;23;20024;-60
2023/04/10 06:15:36;;;;;;;1.35;0.73;;;21.60;49.70;;;;;;5147975;22;20016;-59
2023/04/10 06:17:59;;;;;;;1.02;0.80;;;21.50;49.70;;;;;;5147550;22;20013;-60
2023/04/10 06:20:21;;;;;;;1.40;1.00;;;21.50;49.70;;;;;;5146993;23;20021;-60
2023/04/10 06:22:44;;;;;;;1.38;0.85;;;21.50;49.70;;;;;;5146335;23;20016;-59
2023/04/10 06:25:07;;;;;;;1.73;0.80;;;21.50;49.80;;;;;;5116914;23;20071;-59
2023/04/10 06:27:30;;;;;;;0.85;0.60;;;21.50;49.70;;;;;;5147276;22;20047;-60
2023/04/10 06:29:52;;;;;;;0.63;0.50;;;21.50;50.50;;;;;;5146982;23;20012;-59
2023/04/10 06:32:14;;;;;;;0.52;0.50;;;21.60;49.90;;;;;;5147170;22;20095;-59
2023/04/10 06:34:37;;;;;;;0.52;0.52;;;21.60;49.80;;;;;;5147076;23;20016;-59
2023/04/10 06:36:59;;;;;;;0.82;0.50;;;21.60;49.90;;;;;;5147006;22;20524;-60
2023/04/10 06:39:22;;;;;;;1.45;0.85;;;21.60;49.80;;;;;;5117515;23;20017;-60
2023/04/10 06:41:44;;;;;;;1.55;0.70;;;21.60;50.00;;;;;;5146593;22;20098;-59
2023/04/10 06:44:07;;;;;;;1.63;0.57;;;21.60;49.90;;;;;;5147825;22;20396;-60
2023/04/10 06:46:29;;;;;;;1.23;0.70;;;21.70;49.90;;;;;;5147067;22;20024;-59
2023/04/10 06:48:51;;;;;;;1.15;0.57;;;21.80;49.90;;;;;;5147836;22;20015;-60
2023/04/10 06:51:14;;;;;;;0.65;0.52;;;21.90;49.90;;;;;;5147282;22;20539;-59
2023/04/10 06:53:36;;;;;;;0.77;0.40;;;21.90;50.00;;;;;;5116424;23;20410;-59
2023/04/10 06:55:59;;;;;;;1.40;0.63;;;22.10;49.90;;;;;;5146801;23;20493;-61
2023/04/10 06:58:23;;;;;;;0.80;0.50;;;22.30;49.50;;;;;;5139871;22;20035;-59
2023/04/10 07:00:45;;;;;;;1.05;0.65;;;22.40;49.00;;;;;;5147304;22;20170;-60
2023/04/10 07:03:08;;;;;;;1.08;0.70;;;22.60;48.60;;;;;;5114828;23;20104;-60
2023/04/10 07:05:30;;;;;;;1.17;0.60;;;22.70;48.40;;;;;;5116538;23;20397;-60
2023/04/10 07:07:53;;;;;;;3.35;0.57;;;22.70;48.20;;;;;;5145385;23;20013;-60
2023/04/10 07:10:15;;;;;;;1.73;0.90;;;22.80;48.50;;;;;;5146835;22;20391;-60
2023/04/10 07:12:38;;;;;;;0.70;0.55;;;22.90;47.90;;;;;;5114113;23;20257;-59
2023/04/10 07:15:00;;;;;;;0.70;0.70;;;23.00;47.00;;;;;;5147021;22;20020;-60
2023/04/10 07:17:23;;;;;;;0.57;0.50;;;23.20;46.50;;;;;;5145996;23;20009;-60
2023/04/10 07:19:46;;;;;;;1.30;0.60;;;23.20;46.00;;;;;;5147522;22;20008;-59
2023/04/10 07:22:08;;;;;;;0.85;0.50;;;23.00;46.40;;;;;;5147267;22;20099;-59
2023/04/10 07:24:31;;;;;;;1.02;0.43;;;22.70;46.90;;;;;;5146494;22;20043;-59
2023/04/10 07:26:57;;;;;;;1.60;0.70;;;22.60;47.30;;;;;;5147884;22;20028;-60
2023/04/10 07:29:20;;;;;;;1.73;0.88;;;22.40;47.60;;;;;;5148462;22;20012;-59
2023/04/10 07:31:42;;;;;;;1.05;0.50;;;22.30;47.90;;;;;;5148164;22;20017;-59
2023/04/10 07:34:05;;;;;;;2.65;0.80;;;22.20;48.20;;;;;;5116112;23;20064;-58
2023/04/10 07:36:28;;;;;;;0.68;0.50;;;22.10;48.30;;;;;;5147526;22;20016;-59
2023/04/10 07:38:50;;;;;;;0.50;0.50;;;22.00;48.50;;;;;;5148541;22;20012;-58
2023/04/10 07:41:13;;;;;;;0.50;0.40;;;21.90;48.70;;;;;;5147866;22;20368;-59
2023/04/10 07:43:35;;;;;;;0.70;0.70;;;21.90;48.70;;;;;;5147229;23;20017;-59
2023/04/10 07:45:58;;;;;;;3.50;1.20;;;21.80;48.80;;;;;;5147774;22;20021;-59
2023/04/10 07:48:20;;;;;;;4.03;1.92;;;21.80;48.90;;;;;;5148270;22;20390;-59
2023/04/10 07:50:43;;;;;;;5.35;3.17;;;21.80;49.00;;;;;;5148066;22;20419;-59
2023/04/10 07:53:06;;;;;;;7.00;4.05;;;21.70;49.10;;;;;;5117987;23;20016;-59
2023/04/10 07:55:29;;;;;;;8.68;4.80;;;21.70;49.20;;;;;;5148078;22;20016;-59
2023/04/10 07:57:51;;;;;;;10.13;5.05;;;21.60;49.30;;;;;;5145347;22;20012;-59
2023/04/10 08:00:14;;;;;;;8.55;4.80;;;21.60;49.30;;;;;;5146776;22;20013;-58
2023/04/10 08:02:37;;;;;;;9.65;5.47;;;21.60;49.60;;;;;;5146604;22;20012;-58
2023/04/10 08:04:59;;;;;;;8.38;4.35;;;21.60;49.50;;;;;;5138957;23;20017;-59
2023/04/10 08:07:22;;;;;;;9.70;4.63;;;21.50;49.60;;;;;;5146861;22;20604;-59
2023/04/10 08:09:44;;;;;;;8.43;4.38;;;21.60;49.70;;;;;;5146718;22;20047;-59
2023/04/10 08:12:07;;;;;;;7.63;4.40;;;21.50;49.70;;;;;;5115128;23;20416;-59
2023/04/10 08:14:29;;;;;;;8.27;3.88;;;21.50;49.80;;;;;;5115994;23;20063;-59
2023/04/10 08:16:52;;;;;;;5.88;3.20;;;21.50;49.90;;;;;;5147125;22;20478;-59
2023/04/10 08:19:14;;;;;;;5.18;3.13;;;21.50;49.90;;;;;;5147295;22;20357;-58
2023/04/10 08:21:37;;;;;;;5.78;2.78;;;21.50;50.00;;;;;;5146249;22;20426;-58
2023/04/10 08:24:02;;;;;;;5.45;2.75;;;21.50;50.10;;;;;;5147311;22;20023;-59
2023/04/10 08:26:26;;;;;;;5.05;2.80;;;21.40;50.00;;;;;;5146389;22;20025;-58
2023/04/10 08:28:49;;;;;;;;;;;21.40;50.10;;;;;;5145287;23;20012;-58
2023/04/10 08:31:13;;;;;;;4.63;2.63;;;21.40;50.20;;;;;;5143606;23;19948;-59
2023/04/10 08:33:35;;;;;;;4.57;2.22;;;21.40;50.20;;;;;;5146183;23;20019;-59
2023/04/10 08:35:58;;;;;;;4.40;2.58;;;21.30;50.20;;;;;;5146204;23;20012;-58
2023/04/10 08:38:22;;;;;;;4.22;2.17;;;21.30;50.30;;;;;;5111627;23;20013;-59
2023/04/10 08:40:45;;;;;;;3.00;2.00;;;21.30;50.30;;;;;;5147098;22;20009;-59
2023/04/10 08:43:08;;;;;;;2.70;1.85;;;21.30;50.40;;;;;;5146539;22;20100;-62
2023/04/10 08:45:30;;;;;;;4.00;1.73;;;21.30;50.50;;;;;;5116049;23;20522;-59
2023/04/10 08:47:57;;;;;;;2.95;1.58;;;21.30;50.50;;;;;;5145658;22;20286;-60
2023/04/10 08:50:20;;;;;;;2.72;1.75;;;21.20;50.50;;;;;;5146835;22;20036;-60
2023/04/10 08:52:46;;;;;;;2.42;1.38;;;21.20;50.50;;;;;;5145643;23;20020;-60
2023/04/10 08:55:11;;;;;;;2.33;1.40;;;21.20;51.20;;;;;;5113597;23;20547;-59
2023/04/10 08:57:36;;;;;;;2.28;1.30;;;21.20;50.60;;;;;;5145715;22;20016;-59
2023/04/10 08:59:59;;;;;;;2.47;1.40;;;21.20;50.60;;;;;;5146835;22;20488;-59
2023/04/10 09:02:22;;;;;;;1.60;1.03;;;21.20;50.60;;;;;;5145583;23;20455;-60
2023/04/10 09:04:55;;;;;;;2.78;1.23;;;21.20;50.70;;;;;;5115649;22;20013;-58
2023/04/10 09:07:18;;;;;;;1.77;1.08;;;21.20;50.80;;;;;;5143224;22;20024;-59
2023/04/10 09:09:40;;;;;;;1.88;1.00;;;21.20;50.80;;;;;;5140937;23;20342;-59
2023/04/10 09:12:04;;;;;;;1.83;1.05;;;21.20;50.80;;;;;;5144357;22;20372;-59
2023/04/10 09:14:31;;;;;;;2.67;0.93;;;21.20;50.90;;;;;;5171046;22;20015;-60
2023/04/10 09:17:10;;;;;;;1.42;0.82;;;21.10;50.80;;;;;;5169803;23;20023;-59
2023/04/10 09:19:34;;;;;;;1.13;0.68;;;21.10;50.90;;;;;;5170804;22;20016;-59
2023/04/10 09:21:56;;;;;;;1.58;0.90;;;21.10;50.90;;;;;;5137451;23;20048;-59
2023/04/10 09:24:19;;;;;;;1.05;0.70;;;21.10;50.90;;;;;;5171076;22;20145;-59
2023/04/10 09:26:42;;;;;;;1.00;0.63;;;21.10;51.00;;;;;;5168698;23;20024;-59
2023/04/10 09:29:06;;;;;;;1.77;1.00;;;21.10;51.00;;;;;;5172423;22;20008;-59
2023/04/10 09:31:34;;;;;;;0.70;0.68;;;21.00;51.00;;;;;;5170576;22;20103;-59
2023/04/10 09:34:20;;;;;;;1.30;0.95;;;21.00;51.00;;;;;;5158637;23;20012;-60
2023/04/10 09:36:44;;;;;;;0.77;0.60;;;21.00;51.70;;;;;;5162916;22;20016;-60
2023/04/10 09:39:06;;;;;;;;;;;21.00;51.20;;;;;;5162145;23;20040;-59
2023/04/10 09:41:29;;;;;;;1.15;0.90;;;21.00;51.30;;;;;;5164076;22;19914;-59
2023/04/10 09:44:09;;;;;;;1.38;0.93;;;21.00;51.30;;;;;;5131088;23;20103;-60
2023/04/10 09:46:31;;;;;;;2.05;0.80;;;21.00;51.30;;;;;;5164846;22;20054;-59
2023/04/10 09:48:58;;;;;;;1.00;0.63;;;21.00;51.30;;;;;;5162121;23;20023;-61
2023/04/10 09:51:34;;;;;;;0.75;0.50;;;20.90;51.20;;;;;;5162078;23;20095;-60
2023/04/10 09:54:00;;;;;;;1.02;0.88;;;20.90;51.30;;;;;;5129923;23;20623;-60
2023/04/10 09:56:26;;;;;;;1.23;0.75;;;20.90;51.20;;;;;;5162421;23;20095;-60
2023/04/10 09:59:00;;;;;;;1.05;0.73;;;20.90;51.30;;;;;;5164073;22;20019;-60
2023/04/10 10:01:24;;;;;;;0.98;0.70;;;20.90;51.30;;;;;;5164934;22;20748;-60
2023/04/10 10:03:46;;;;;;;;;;;20.90;51.40;;;;;;5163494;22;20482;-61
2023/04/10 10:06:10;;;;;;;1.08;0.70;;;20.90;51.40;;;;;;5164335;22;19919;-60
2023/04/10 10:08:34;;;;;;;1.30;0.82;;;20.80;51.40;;;;;;5163923;22;20016;-60
2023/04/10 10:10:59;;;;;;;1.25;0.73;;;20.80;51.40;;;;;;5163406;23;20015;-58
2023/04/10 10:13:31;;;;;;;0.82;0.55;;;20.80;51.50;;;;;;5163396;23;20020;-59
2023/04/10 10:16:14;;;;;;;1.30;0.70;;;20.80;51.50;;;;;;5162714;23;20019;-60
2023/04/10 10:18:46;;;;;;;1.90;0.90;;;20.80;51.50;;;;;;5162207;23;20063;-59
2023/04/10 10:21:09;;;;;;;1.10;0.68;;;20.80;51.50;;;;;;5132983;23;20024;-60
2023/04/10 10:23:32;;;;;;;0.80;0.43;;;20.70;51.50;;;;;;5164995;22;20138;-60
2023/04/10 10:25:57;;;;;;;1.05;0.80;;;20.70;51.60;;;;;;5161194;23;20265;-59
2023/04/10 10:28:21;;;;;;;0.60;0.60;;;20.70;51.70;;;;;;5163537;23;20466;-59
2023/04/10 10:30:44;;;;;;;;;;;20.70;51.70;;;;;;5164620;22;20055;-59
2023/04/10 10:33:07;;;;;;;0.55;0.47;;;20.70;51.80;;;;;;5154302;23;19918;-59
2023/04/10 10:35:35;;;;;;;0.50;0.50;;;20.60;51.70;;;;;;5164248;22;20012;-60
2023/04/10 10:37:59;;;;;;;0.68;0.57;;;20.70;51.80;;;;;;5161559;23;20543;-59
2023/04/10 10:40:33;;;;;;;0.57;0.47;;;20.70;51.70;;;;;;5161665;23;20014;-60
2023/04/10 10:43:17;;;;;;;1.08;0.60;;;20.60;51.70;;;;;;5157688;22;20016;-59
2023/04/10 10:46:06;;;;;;;0.82;0.63;;;20.60;51.60;;;;;;5164907;22;20491;-59
2023/04/10 10:48:29;;;;;;;0.50;0.50;;;20.60;51.70;;;;;;5164001;23;20186;-59
2023/04/10 10:50:58;;;;;;;0.93;0.57;;;20.60;51.70;;;;;;5164546;22;20016;-59
2023/04/10 10:53:44;;;;;;;0.50;0.50;;;20.60;51.80;;;;;;5165130;22;20115;-59
2023/04/10 10:56:19;;;;;;;0.60;0.45;;;20.60;51.60;;;;;;5153881;23;20020;-59
2023/04/10 10:58:49;;;;;;;1.35;0.80;;;20.60;51.70;;;;;;5163803;22;20043;-59
2023/04/10 11:01:11;;;;;;;0.98;0.60;;;20.50;51.60;;;;;;5160761;23;20047;-60
2023/04/10 11:03:34;;;;;;;1.00;0.47;;;20.50;51.50;;;;;;5163287;22;20304;-60
2023/04/10 11:06:06;;;;;;;0.60;0.60;;;20.50;51.30;;;;;;5164112;22;20162;-59
2023/04/10 11:08:44;;;;;;;0.65;0.55;;;20.50;51.30;;;;;;5158317;23;20090;-59
2023/04/10 11:11:08;;;;;;;1.20;0.50;;;20.50;51.20;;;;;;5132229;23;20016;-60
2023/04/10 11:13:31;;;;;;;;;;;20.50;51.30;;;;;;5164436;22;20489;-60
2023/04/10 11:15:58;;;;;;;0.60;0.60;;;20.50;51.50;;;;;;5162374;23;20322;-60
2023/04/10 11:18:40;;;;;;;1.00;0.80;;;20.40;51.30;;;;;;5163723;22;20438;-58
2023/04/10 11:21:10;;;;;;;0.50;0.50;;;20.40;51.30;;;;;;5162014;23;20020;-59
2023/04/10 11:23:33;;;;;;;0.60;0.60;;;20.40;51.40;;;;;;5133085;22;20072;-59
2023/04/10 11:25:55;;;;;;;0.75;0.70;;;20.40;51.40;;;;;;5161154;23;20028;-60
2023/04/10 11:28:33;;;;;;;1.52;0.68;;;20.40;51.30;;;;;;5156113;22;20008;-60
2023/04/10 11:30:56;;;;;;;0.52;0.50;;;20.40;51.30;;;;;;5163040;23;20031;-59
2023/04/10 11:33:19;;;;;;;0.77;0.70;;;20.40;51.50;;;;;;5164061;22;20505;-59
2023/04/10 11:35:45;;;;;;;0.40;0.40;;;20.40;51.50;;;;;;5163930;22;20020;-60
2023/04/10 11:38:13;;;;;;;1.25;0.82;;;20.30;51.40;;;;;;5160710;23;20241;-60
2023/04/10 11:40:52;;;;;;;1.75;0.80;;;20.30;51.50;;;;;;5152746;23;20154;-59
2023/04/10 11:43:14;;;;;;;0.88;0.60;;;20.30;51.50;;;;;;5132674;23;20016;-59
2023/04/10 11:45:37;;;;;;;0.63;0.50;;;20.30;51.40;;;;;;5163876;22;20028;-59
2023/04/10 11:47:59;;;;;;;0.50;0.50;;;20.30;51.40;;;;;;5164582;22;20074;-59
2023/04/10 11:50:22;;;;;;;0.70;0.60;;;20.30;51.50;;;;;;5155675;22;20019;-59
2023/04/10 11:52:45;;;;;;;0.50;0.50;;;20.30;51.50;;;;;;5153180;23;20016;-59
2023/04/10 11:55:08;;;;;;;0.60;0.60;;;20.30;51.50;;;;;;5164077;22;20039;-59
2023/04/10 11:57:35;;;;;;;0.73;0.60;;;20.30;51.50;;;;;;5163963;22;20027;-61
2023/04/10 11:59:58;;;;;;;1.08;0.60;;;20.20;51.40;;;;;;5131619;23;20931;-59
2023/04/10 12:02:20;;;;;;;1.50;0.60;;;20.20;51.60;;;;;;5163068;22;20027;-59
2023/04/10 12:04:58;;;;;;;5.30;0.70;;;20.20;51.60;;;;;;5161921;22;20012;-47
2023/04/10 12:07:26;;;;;;;1.35;0.90;;;20.20;51.70;;;;;;5154172;23;20202;-59
2023/04/10 12:09:56;;;;;;;7.53;1.38;;;20.20;51.50;;;;;;5157836;22;20012;-60
